sensor_id;sensor_type;location;lat;lon;timestamp;temperature;humidity
10451;DHT22;5273;51.290;6.918;2023-02-18T00:14:29;11.30;99.90
10451;DHT22;5273;51.290;6.918;2023-02-18T00:31:40;11.20;99.90
10451;DHT22;5273;51.290;6.918;2023-02-18T00:36:34;11.20;99.90
10451;DHT22;5273;51.290;6.918;2023-02-18T00:39:04;11.20;99.90
10451;DHT22;5273;51.290;6.918;2023-02-18T00:41:31;11.20;99.90
10451;DHT22;5273;51.290;6.918;2023-02-18T00:48:55;11.20;99.90
10451;DHT22;5273;51.290;6.918;2023-02-18T00:51:23;11.20;99.90
10451;DHT22;5273;51.290;6.918;2023-02-18T01:01:12;11.20;99.90
10451;DHT22;5273;51.290;6.918;2023-02-18T01:03:40;11.20;99.90
10451;DHT22;5273;51.290;6.918;2023-02-18T01:06:10;11.20;99.90
10451;DHT22;5273;51.290;6.918;2023-02-18T01:08:38;11.20;99.90
10451;DHT22;5273;51.290;6.918;2023-02-18T01:11:06;11.20;99.90
10451;DHT22;5273;51.290;6.918;2023-02-18T01:23:24;11.20;99.90
10451;DHT22;5273;51.290;6.918;2023-02-18T01:40:47;11.10;99.90
10451;DHT22;5273;51.290;6.918;2023-02-18T01:43:17;11.10;99.90
10451;DHT22;5273;51.290;6.918;2023-02-18T01:45:51;11.10;99.90
10451;DHT22;5273;51.290;6.918;2023-02-18T01:48:23;11.00;99.90
10451;DHT22;5273;51.290;6.918;2023-02-18T01:50:53;11.10;99.90
10451;DHT22;5273;51.290;6.918;2023-02-18T01:53:26;11.10;99.90
10451;DHT22;5273;51.290;6.918;2023-02-18T01:55:55;11.00;99.90
10451;DHT22;5273;51.290;6.918;2023-02-18T01:58:22;11.00;99.90
10451;DHT22;5273;51.290;6.918;2023-02-18T02:10:46;11.00;99.90
10451;DHT22;5273;51.290;6.918;2023-02-18T02:13:23;11.00;99.90
10451;DHT22;5273;51.290;6.918;2023-02-18T02:15:57;11.00;99.90
10451;DHT22;5273;51.290;6.918;2023-02-18T02:18:39;11.00;99.90
10451;DHT22;5273;51.290;6.918;2023-02-18T02:21:35;11.00;99.90
10451;DHT22;5273;51.290;6.918;2023-02-18T02:24:28;11.00;99.90
10451;DHT22;5273;51.290;6.918;2023-02-18T02:27:10;11.00;99.90
10451;DHT22;5273;51.290;6.918;2023-02-18T02:33:12;11.00;99.90
10451;DHT22;5273;51.290;6.918;2023-02-18T02:35:45;10.90;99.90
10451;DHT22;5273;51.290;6.918;2023-02-18T02:38:18;10.90;99.90
10451;DHT22;5273;51.290;6.918;2023-02-18T02:40:54;10.90;99.90
10451;DHT22;5273;51.290;6.918;2023-02-18T02:43:32;10.80;99.90
10451;DHT22;5273;51.290;6.918;2023-02-18T02:46:07;10.80;99.90
10451;DHT22;5273;51.290;6.918;2023-02-18T02:48:41;10.90;99.90
10451;DHT22;5273;51.290;6.918;2023-02-18T02:51:16;10.80;99.90
10451;DHT22;5273;51.290;6.918;2023-02-18T02:56:14;10.80;99.90
10451;DHT22;5273;51.290;6.918;2023-02-18T02:58:41;10.80;99.90
10451;DHT22;5273;51.290;6.918;2023-02-18T03:01:24;10.80;99.90
10451;DHT22;5273;51.290;6.918;2023-02-18T03:04:22;10.80;99.90
10451;DHT22;5273;51.290;6.918;2023-02-18T03:07:19;10.80;99.90
10451;DHT22;5273;51.290;6.918;2023-02-18T03:10:01;10.80;99.90
10451;DHT22;5273;51.290;6.918;2023-02-18T03:12:38;10.70;99.90
10451;DHT22;5273;51.290;6.918;2023-02-18T03:15:15;10.70;99.90
10451;DHT22;5273;51.290;6.918;2023-02-18T03:17:50;10.70;99.90
10451;DHT22;5273;51.290;6.918;2023-02-18T03:20:22;10.70;99.90
10451;DHT22;5273;51.290;6.918;2023-02-18T03:22:52;10.70;99.90
10451;DHT22;5273;51.290;6.918;2023-02-18T03:25:22;10.70;99.90
10451;DHT22;5273;51.290;6.918;2023-02-18T03:27:52;10.70;99.90
10451;DHT22;5273;51.290;6.918;2023-02-18T03:30:24;10.70;99.90
10451;DHT22;5273;51.290;6.918;2023-02-18T03:32:55;10.70;99.90
10451;DHT22;5273;51.290;6.918;2023-02-18T03:35:24;10.70;99.90
10451;DHT22;5273;51.290;6.918;2023-02-18T03:37:57;10.70;99.90
10451;DHT22;5273;51.290;6.918;2023-02-18T03:42:55;10.70;99.90
10451;DHT22;5273;51.290;6.918;2023-02-18T03:55:13;10.60;99.90
10451;DHT22;5273;51.290;6.918;2023-02-18T04:00:08;10.60;99.90
10451;DHT22;5273;51.290;6.918;2023-02-18T04:12:27;10.60;99.90
10451;DHT22;5273;51.290;6.918;2023-02-18T04:29:37;10.60;99.90
10451;DHT22;5273;51.290;6.918;2023-02-18T04:46:48;10.50;99.90
10451;DHT22;5273;51.290;6.918;2023-02-18T05:03:59;10.40;99.90
10451;DHT22;5273;51.290;6.918;2023-02-18T05:21:09;10.30;99.90
10451;DHT22;5273;51.290;6.918;2023-02-18T05:38:21;10.30;99.90
10451;DHT22;5273;51.290;6.918;2023-02-18T05:55:31;10.30;99.90
10451;DHT22;5273;51.290;6.918;2023-02-18T06:12:46;10.20;99.90
10451;DHT22;5273;51.290;6.918;2023-02-18T06:29:57;10.20;99.90
10451;DHT22;5273;51.290;6.918;2023-02-18T06:47:07;10.30;99.90
10451;DHT22;5273;51.290;6.918;2023-02-18T07:04:20;10.30;99.90
10451;DHT22;5273;51.290;6.918;2023-02-18T07:21:31;10.20;99.90
10451;DHT22;5273;51.290;6.918;2023-02-18T07:38:41;10.40;99.90
10451;DHT22;5273;51.290;6.918;2023-02-18T07:41:15;10.40;99.90
10451;DHT22;5273;51.290;6.918;2023-02-18T07:51:05;10.40;99.90
10451;DHT22;5273;51.290;6.918;2023-02-18T07:56:01;10.40;99.90
10451;DHT22;5273;51.290;6.918;2023-02-18T07:58:30;10.30;99.90
10451;DHT22;5273;51.290;6.918;2023-02-18T08:03:26;10.30;99.90
10451;DHT22;5273;51.290;6.918;2023-02-18T08:08:22;10.30;99.90
10451;DHT22;5273;51.290;6.918;2023-02-18T08:13:18;10.30;99.90
10451;DHT22;5273;51.290;6.918;2023-02-18T08:18:15;10.10;99.90
10451;DHT22;5273;51.290;6.918;2023-02-18T08:23:12;10.10;99.90
10451;DHT22;5273;51.290;6.918;2023-02-18T08:25:39;10.10;99.90
10451;DHT22;5273;51.290;6.918;2023-02-18T08:30:34;10.10;99.90
10451;DHT22;5273;51.290;6.918;2023-02-18T08:47:45;10.50;99.90
10451;DHT22;5273;51.290;6.918;2023-02-18T08:55:07;10.60;99.90
10451;DHT22;5273;51.290;6.918;2023-02-18T09:04:56;10.40;99.90
10451;DHT22;5273;51.290;6.918;2023-02-18T09:14:46;10.20;99.90
10451;DHT22;5273;51.290;6.918;2023-02-18T09:22:08;10.20;99.90
10451;DHT22;5273;51.290;6.918;2023-02-18T09:24:36;10.20;99.90
10451;DHT22;5273;51.290;6.918;2023-02-18T09:31:59;10.20;99.90
10451;DHT22;5273;51.290;6.918;2023-02-18T09:39:22;10.20;99.90
10451;DHT22;5273;51.290;6.918;2023-02-18T09:41:51;10.20;99.90
10451;DHT22;5273;51.290;6.918;2023-02-18T09:44:22;10.20;99.90
10451;DHT22;5273;51.290;6.918;2023-02-18T09:46:53;10.10;99.90
10451;DHT22;5273;51.290;6.918;2023-02-18T09:49:24;10.20;99.90
10451;DHT22;5273;51.290;6.918;2023-02-18T09:51:53;10.20;99.90
10451;DHT22;5273;51.290;6.918;2023-02-18T09:56:49;10.20;99.90
10451;DHT22;5273;51.290;6.918;2023-02-18T09:59:19;10.20;99.90
10451;DHT22;5273;51.290;6.918;2023-02-18T10:01:48;10.20;99.90
10451;DHT22;5273;51.290;6.918;2023-02-18T10:04:20;10.20;99.90
10451;DHT22;5273;51.290;6.918;2023-02-18T10:06:50;10.20;99.90
10451;DHT22;5273;51.290;6.918;2023-02-18T10:09:20;10.20;99.90
10451;DHT22;5273;51.290;6.918;2023-02-18T10:11:51;10.30;99.90
10451;DHT22;5273;51.290;6.918;2023-02-18T10:16:49;10.30;99.90
10451;DHT22;5273;51.290;6.918;2023-02-18T10:19:21;10.30;99.90
10451;DHT22;5273;51.290;6.918;2023-02-18T10:21:50;10.30;99.90
10451;DHT22;5273;51.290;6.918;2023-02-18T10:24:25;10.30;99.90
10451;DHT22;5273;51.290;6.918;2023-02-18T10:26:54;10.30;99.90
10451;DHT22;5273;51.290;6.918;2023-02-18T10:29:22;10.30;99.90
10451;DHT22;5273;51.290;6.918;2023-02-18T10:31:53;10.30;99.90
10451;DHT22;5273;51.290;6.918;2023-02-18T10:34:29;10.30;99.90
10451;DHT22;5273;51.290;6.918;2023-02-18T10:37:00;10.40;99.90
10451;DHT22;5273;51.290;6.918;2023-02-18T10:39:43;10.40;99.90
10451;DHT22;5273;51.290;6.918;2023-02-18T10:42:23;10.30;99.90
10451;DHT22;5273;51.290;6.918;2023-02-18T10:45:00;10.30;99.90
10451;DHT22;5273;51.290;6.918;2023-02-18T10:47:36;10.30;99.90
10451;DHT22;5273;51.290;6.918;2023-02-18T10:50:08;10.30;99.90
10451;DHT22;5273;51.290;6.918;2023-02-18T10:52:39;10.30;99.90
10451;DHT22;5273;51.290;6.918;2023-02-18T10:55:08;10.20;99.90
10451;DHT22;5273;51.290;6.918;2023-02-18T10:57:45;10.20;99.90
10451;DHT22;5273;51.290;6.918;2023-02-18T11:00:17;10.10;99.90
10451;DHT22;5273;51.290;6.918;2023-02-18T11:02:45;10.10;99.90
10451;DHT22;5273;51.290;6.918;2023-02-18T11:05:19;10.10;99.90
10451;DHT22;5273;51.290;6.918;2023-02-18T11:07:50;10.10;99.90
10451;DHT22;5273;51.290;6.918;2023-02-18T11:10:21;10.10;99.90
10451;DHT22;5273;51.290;6.918;2023-02-18T11:12:50;10.10;99.90
10451;DHT22;5273;51.290;6.918;2023-02-18T11:15:20;10.10;99.90
10451;DHT22;5273;51.290;6.918;2023-02-18T11:17:49;10.10;99.90
10451;DHT22;5273;51.290;6.918;2023-02-18T11:20:28;10.10;99.90
10451;DHT22;5273;51.290;6.918;2023-02-18T11:23:16;10.10;99.90
10451;DHT22;5273;51.290;6.918;2023-02-18T11:25:56;10.00;99.90
10451;DHT22;5273;51.290;6.918;2023-02-18T11:28:47;10.00;99.90
10451;DHT22;5273;51.290;6.918;2023-02-18T11:31:21;10.00;99.90
10451;DHT22;5273;51.290;6.918;2023-02-18T11:33:50;9.90;99.90
10451;DHT22;5273;51.290;6.918;2023-02-18T11:36:21;10.00;99.90
10451;DHT22;5273;51.290;6.918;2023-02-18T11:38:54;10.00;99.90
10451;DHT22;5273;51.290;6.918;2023-02-18T11:41:29;10.00;99.90
10451;DHT22;5273;51.290;6.918;2023-02-18T11:43:59;10.00;99.90
10451;DHT22;5273;51.290;6.918;2023-02-18T11:51:24;9.90;99.90
10451;DHT22;5273;51.290;6.918;2023-02-18T11:53:57;10.00;99.90
10451;DHT22;5273;51.290;6.918;2023-02-18T11:56:27;10.00;99.90
10451;DHT22;5273;51.290;6.918;2023-02-18T11:58:57;10.00;99.90
10451;DHT22;5273;51.290;6.918;2023-02-18T12:01:37;10.00;99.90
10451;DHT22;5273;51.290;6.918;2023-02-18T12:04:12;10.00;99.90
10451;DHT22;5273;51.290;6.918;2023-02-18T12:06:44;10.10;99.90
10451;DHT22;5273;51.290;6.918;2023-02-18T12:09:22;10.10;99.90
10451;DHT22;5273;51.290;6.918;2023-02-18T12:11:52;10.10;99.90
10451;DHT22;5273;51.290;6.918;2023-02-18T12:14:23;10.70;99.90
10451;DHT22;5273;51.290;6.918;2023-02-18T12:17:13;10.20;99.90
10451;DHT22;5273;51.290;6.918;2023-02-18T12:19:58;10.10;99.90
10451;DHT22;5273;51.290;6.918;2023-02-18T12:22:35;10.10;99.90
10451;DHT22;5273;51.290;6.918;2023-02-18T12:25:20;10.20;99.90
10451;DHT22;5273;51.290;6.918;2023-02-18T12:27:55;10.20;99.90
10451;DHT22;5273;51.290;6.918;2023-02-18T12:30:39;10.20;99.90
10451;DHT22;5273;51.290;6.918;2023-02-18T12:33:18;10.20;99.90
10451;DHT22;5273;51.290;6.918;2023-02-18T12:35:55;10.20;99.90
10451;DHT22;5273;51.290;6.918;2023-02-18T12:38:43;10.20;99.90
10451;DHT22;5273;51.290;6.918;2023-02-18T12:41:39;10.20;99.90
10451;DHT22;5273;51.290;6.918;2023-02-18T12:44:21;10.20;99.90
10451;DHT22;5273;51.290;6.918;2023-02-18T12:50:21;10.20;99.90
10451;DHT22;5273;51.290;6.918;2023-02-18T12:53:02;10.20;99.90
10451;DHT22;5273;51.290;6.918;2023-02-18T12:55:40;10.20;99.90
10451;DHT22;5273;51.290;6.918;2023-02-18T12:58:15;10.20;99.90
10451;DHT22;5273;51.290;6.918;2023-02-18T13:01:07;10.30;99.90
10451;DHT22;5273;51.290;6.918;2023-02-18T13:06:41;10.30;99.90
10451;DHT22;5273;51.290;6.918;2023-02-18T13:09:23;10.30;99.90
10451;DHT22;5273;51.290;6.918;2023-02-18T13:12:05;10.20;99.90
10451;DHT22;5273;51.290;6.918;2023-02-18T13:14:58;10.20;99.90
10451;DHT22;5273;51.290;6.918;2023-02-18T13:17:36;10.30;99.90
10451;DHT22;5273;51.290;6.918;2023-02-18T13:20:40;10.30;99.90
10451;DHT22;5273;51.290;6.918;2023-02-18T13:23:16;10.30;99.90
10451;DHT22;5273;51.290;6.918;2023-02-18T13:25:54;10.20;99.90
10451;DHT22;5273;51.290;6.918;2023-02-18T13:28:25;10.30;99.90
10451;DHT22;5273;51.290;6.918;2023-02-18T13:31:13;10.30;99.90
10451;DHT22;5273;51.290;6.918;2023-02-18T13:33:57;10.20;99.90
10451;DHT22;5273;51.290;6.918;2023-02-18T13:36:54;10.20;99.90
10451;DHT22;5273;51.290;6.918;2023-02-18T13:39:32;10.20;99.90
10451;DHT22;5273;51.290;6.918;2023-02-18T13:42:21;10.20;99.90
10451;DHT22;5273;51.290;6.918;2023-02-18T13:45:18;10.20;99.90
10451;DHT22;5273;51.290;6.918;2023-02-18T13:47:48;10.20;99.90
10451;DHT22;5273;51.290;6.918;2023-02-18T13:50:27;10.20;99.90
10451;DHT22;5273;51.290;6.918;2023-02-18T13:53:26;11.10;99.90
10451;DHT22;5273;51.290;6.918;2023-02-18T13:55:57;10.30;99.90
10451;DHT22;5273;51.290;6.918;2023-02-18T13:58:30;10.20;99.90
10451;DHT22;5273;51.290;6.918;2023-02-18T14:01:02;10.20;99.90
10451;DHT22;5273;51.290;6.918;2023-02-18T14:03:37;10.20;99.90
10451;DHT22;5273;51.290;6.918;2023-02-18T14:06:17;10.20;99.90
10451;DHT22;5273;51.290;6.918;2023-02-18T14:08:45;10.20;99.90
10451;DHT22;5273;51.290;6.918;2023-02-18T14:11:45;10.20;99.90
10451;DHT22;5273;51.290;6.918;2023-02-18T14:14:38;10.30;99.90
10451;DHT22;5273;51.290;6.918;2023-02-18T14:23:42;10.40;99.90
10451;DHT22;5273;51.290;6.918;2023-02-18T14:26:16;10.30;99.90
10451;DHT22;5273;51.290;6.918;2023-02-18T14:28:50;10.40;99.90
10451;DHT22;5273;51.290;6.918;2023-02-18T14:31:40;10.40;99.90
10451;DHT22;5273;51.290;6.918;2023-02-18T14:34:33;10.40;99.90
10451;DHT22;5273;51.290;6.918;2023-02-18T14:37:18;10.40;99.90
10451;DHT22;5273;51.290;6.918;2023-02-18T14:39:57;10.40;99.90
10451;DHT22;5273;51.290;6.918;2023-02-18T14:42:34;10.40;99.90
10451;DHT22;5273;51.290;6.918;2023-02-18T14:45:14;10.40;99.90
10451;DHT22;5273;51.290;6.918;2023-02-18T14:48:03;10.40;99.90
10451;DHT22;5273;51.290;6.918;2023-02-18T14:50:35;10.40;99.90
10451;DHT22;5273;51.290;6.918;2023-02-18T14:53:05;10.40;99.90
10451;DHT22;5273;51.290;6.918;2023-02-18T14:55:39;10.40;99.90
10451;DHT22;5273;51.290;6.918;2023-02-18T14:58:17;10.40;99.90
10451;DHT22;5273;51.290;6.918;2023-02-18T15:03:19;10.40;99.90
10451;DHT22;5273;51.290;6.918;2023-02-18T15:05:47;10.50;99.90
10451;DHT22;5273;51.290;6.918;2023-02-18T15:08:16;10.40;99.90
10451;DHT22;5273;51.290;6.918;2023-02-18T15:10:48;10.40;99.90
10451;DHT22;5273;51.290;6.918;2023-02-18T15:13:17;10.40;99.90
10451;DHT22;5273;51.290;6.918;2023-02-18T15:15:47;10.50;99.90
10451;DHT22;5273;51.290;6.918;2023-02-18T15:18:21;10.50;99.90
10451;DHT22;5273;51.290;6.918;2023-02-18T15:23:16;10.50;99.90
10451;DHT22;5273;51.290;6.918;2023-02-18T15:25:49;10.40;99.90
10451;DHT22;5273;51.290;6.918;2023-02-18T15:28:25;10.40;99.90
10451;DHT22;5273;51.290;6.918;2023-02-18T15:33:20;10.50;99.90
10451;DHT22;5273;51.290;6.918;2023-02-18T15:35:47;10.50;99.90
10451;DHT22;5273;51.290;6.918;2023-02-18T15:38:16;10.50;99.90
10451;DHT22;5273;51.290;6.918;2023-02-18T15:40:47;10.50;99.90
10451;DHT22;5273;51.290;6.918;2023-02-18T15:43:19;10.50;99.90
10451;DHT22;5273;51.290;6.918;2023-02-18T15:45:47;10.50;99.90
10451;DHT22;5273;51.290;6.918;2023-02-18T15:48:23;10.40;99.90
10451;DHT22;5273;51.290;6.918;2023-02-18T15:50:54;10.40;99.90
10451;DHT22;5273;51.290;6.918;2023-02-18T15:55:52;10.50;99.90
10451;DHT22;5273;51.290;6.918;2023-02-18T15:58:22;10.40;99.90
10451;DHT22;5273;51.290;6.918;2023-02-18T16:00:52;10.40;99.90
10451;DHT22;5273;51.290;6.918;2023-02-18T16:03:21;10.40;99.90
10451;DHT22;5273;51.290;6.918;2023-02-18T16:08:21;10.40;99.90
10451;DHT22;5273;51.290;6.918;2023-02-18T16:10:55;10.40;99.90
10451;DHT22;5273;51.290;6.918;2023-02-18T16:13:23;10.40;99.90
10451;DHT22;5273;51.290;6.918;2023-02-18T16:15:51;10.40;99.90
10451;DHT22;5273;51.290;6.918;2023-02-18T16:18:27;10.40;99.90
10451;DHT22;5273;51.290;6.918;2023-02-18T16:20:58;10.40;99.90
10451;DHT22;5273;51.290;6.918;2023-02-18T16:23:33;10.40;99.90
10451;DHT22;5273;51.290;6.918;2023-02-18T16:26:22;10.50;99.90
10451;DHT22;5273;51.290;6.918;2023-02-18T16:28:52;10.50;99.90
10451;DHT22;5273;51.290;6.918;2023-02-18T16:33:47;10.50;99.90
10451;DHT22;5273;51.290;6.918;2023-02-18T16:36:15;10.50;99.90
10451;DHT22;5273;51.290;6.918;2023-02-18T16:38:43;10.50;99.90
10451;DHT22;5273;51.290;6.918;2023-02-18T16:41:11;10.40;99.90
10451;DHT22;5273;51.290;6.918;2023-02-18T16:43:40;10.50;99.90
10451;DHT22;5273;51.290;6.918;2023-02-18T16:46:09;10.50;99.90
10451;DHT22;5273;51.290;6.918;2023-02-18T16:48:39;10.40;99.90
10451;DHT22;5273;51.290;6.918;2023-02-18T16:51:09;10.50;99.90
10451;DHT22;5273;51.290;6.918;2023-02-18T16:56:05;10.50;99.90
10451;DHT22;5273;51.290;6.918;2023-02-18T17:01:00;10.50;99.90
10451;DHT22;5273;51.290;6.918;2023-02-18T17:08:23;10.50;99.90
10451;DHT22;5273;51.290;6.918;2023-02-18T17:10:52;10.50;99.90
10451;DHT22;5273;51.290;6.918;2023-02-18T17:13:22;10.50;99.90
10451;DHT22;5273;51.290;6.918;2023-02-18T17:15:51;10.50;99.90
10451;DHT22;5273;51.290;6.918;2023-02-18T17:18:19;10.50;99.90
10451;DHT22;5273;51.290;6.918;2023-02-18T17:20:47;10.50;99.90
10451;DHT22;5273;51.290;6.918;2023-02-18T17:30:39;10.50;99.90
10451;DHT22;5273;51.290;6.918;2023-02-18T17:33:09;10.50;99.90
10451;DHT22;5273;51.290;6.918;2023-02-18T17:35:38;10.50;99.90
10451;DHT22;5273;51.290;6.918;2023-02-18T17:38:09;10.50;99.90
10451;DHT22;5273;51.290;6.918;2023-02-18T17:45:33;10.50;99.90
10451;DHT22;5273;51.290;6.918;2023-02-18T17:48:01;10.50;99.90
10451;DHT22;5273;51.290;6.918;2023-02-18T17:50:29;10.50;99.90
10451;DHT22;5273;51.290;6.918;2023-02-18T17:52:58;10.50;99.90
10451;DHT22;5273;51.290;6.918;2023-02-18T17:55:26;10.50;99.90
10451;DHT22;5273;51.290;6.918;2023-02-18T18:00:24;10.60;99.90
10451;DHT22;5273;51.290;6.918;2023-02-18T18:05:21;10.50;99.90
10451;DHT22;5273;51.290;6.918;2023-02-18T18:07:48;10.50;99.90
10451;DHT22;5273;51.290;6.918;2023-02-18T18:10:18;10.50;99.90
10451;DHT22;5273;51.290;6.918;2023-02-18T18:12:46;10.50;99.90
10451;DHT22;5273;51.290;6.918;2023-02-18T18:15:21;10.50;99.90
10451;DHT22;5273;51.290;6.918;2023-02-18T18:20:17;10.50;99.90
10451;DHT22;5273;51.290;6.918;2023-02-18T18:25:22;10.40;99.90
10451;DHT22;5273;51.290;6.918;2023-02-18T18:30:19;10.40;99.90
10451;DHT22;5273;51.290;6.918;2023-02-18T18:35:24;10.40;99.90
10451;DHT22;5273;51.290;6.918;2023-02-18T18:40:21;10.40;99.90
10451;DHT22;5273;51.290;6.918;2023-02-18T18:45:19;10.40;99.90
10451;DHT22;5273;51.290;6.918;2023-02-18T18:50:14;10.30;99.90
10451;DHT22;5273;51.290;6.918;2023-02-18T18:55:25;10.40;99.90
10451;DHT22;5273;51.290;6.918;2023-02-18T19:00:22;10.30;99.90
10451;DHT22;5273;51.290;6.918;2023-02-18T19:05:23;10.30;99.90
10451;DHT22;5273;51.290;6.918;2023-02-18T19:10:18;10.30;99.90
10451;DHT22;5273;51.290;6.918;2023-02-18T19:12:47;10.30;99.90
10451;DHT22;5273;51.290;6.918;2023-02-18T19:15:17;10.30;99.90
10451;DHT22;5273;51.290;6.918;2023-02-18T19:17:46;10.30;99.90
10451;DHT22;5273;51.290;6.918;2023-02-18T19:20:13;10.30;99.90
10451;DHT22;5273;51.290;6.918;2023-02-18T19:27:40;10.30;99.90
10451;DHT22;5273;51.290;6.918;2023-02-18T19:30:10;10.20;99.90
10451;DHT22;5273;51.290;6.918;2023-02-18T19:42:27;10.20;99.90
10451;DHT22;5273;51.290;6.918;2023-02-18T19:47:23;10.30;99.90
10451;DHT22;5273;51.290;6.918;2023-02-18T19:52:19;10.20;99.90
10451;DHT22;5273;51.290;6.918;2023-02-18T20:02:12;10.30;99.90
10451;DHT22;5273;51.290;6.918;2023-02-18T20:04:41;10.30;99.90
10451;DHT22;5273;51.290;6.918;2023-02-18T20:12:03;10.30;99.90
10451;DHT22;5273;51.290;6.918;2023-02-18T20:21:52;10.30;99.90
10451;DHT22;5273;51.290;6.918;2023-02-18T20:24:21;10.30;99.90
10451;DHT22;5273;51.290;6.918;2023-02-18T20:39:08;10.30;99.90
10451;DHT22;5273;51.290;6.918;2023-02-18T20:56:20;10.30;99.90
10451;DHT22;5273;51.290;6.918;2023-02-18T21:01:16;10.30;99.90
10451;DHT22;5273;51.290;6.918;2023-02-18T21:03:44;10.30;99.90
10451;DHT22;5273;51.290;6.918;2023-02-18T21:06:12;10.30;99.90
10451;DHT22;5273;51.290;6.918;2023-02-18T21:08:40;10.30;99.90
10451;DHT22;5273;51.290;6.918;2023-02-18T21:11:09;10.30;99.90
10451;DHT22;5273;51.290;6.918;2023-02-18T21:13:38;10.30;99.90
10451;DHT22;5273;51.290;6.918;2023-02-18T21:16:06;10.30;99.90
10451;DHT22;5273;51.290;6.918;2023-02-18T21:26:01;10.30;99.90
10451;DHT22;5273;51.290;6.918;2023-02-18T21:30:56;10.30;99.90
10451;DHT22;5273;51.290;6.918;2023-02-18T21:48:07;10.20;99.90
10451;DHT22;5273;51.290;6.918;2023-02-18T22:05:32;10.30;99.90
10451;DHT22;5273;51.290;6.918;2023-02-18T22:22:43;10.30;99.90
10451;DHT22;5273;51.290;6.918;2023-02-18T22:30:05;10.30;99.90
10451;DHT22;5273;51.290;6.918;2023-02-18T22:39:54;10.20;99.90
10451;DHT22;5273;51.290;6.918;2023-02-18T22:57:04;10.20;99.90
10451;DHT22;5273;51.290;6.918;2023-02-18T23:09:21;7.90;99.90
10451;DHT22;5273;51.290;6.918;2023-02-18T23:11:49;10.20;99.90
10451;DHT22;5273;51.290;6.918;2023-02-18T23:14:18;10.20;99.90
10451;DHT22;5273;51.290;6.918;2023-02-18T23:16:47;10.20;99.90
10451;DHT22;5273;51.290;6.918;2023-02-18T23:19:33;10.20;99.90
10451;DHT22;5273;51.290;6.918;2023-02-18T23:29:22;10.20;99.90
10451;DHT22;5273;51.290;6.918;2023-02-18T23:39:15;10.20;99.90
10451;DHT22;5273;51.290;6.918;2023-02-18T23:44:12;10.30;99.90
10451;DHT22;5273;51.290;6.918;2023-02-18T23:46:41;10.20;99.90
10451;DHT22;5273;51.290;6.918;2023-02-18T23:49:11;10.20;99.90
10451;DHT22;5273;51.290;6.918;2023-02-18T23:59:01;10.30;99.90
